createdAt,value
2023-04-08T00:01:14.398Z,2.05
2023-04-08T00:03:44.023Z,1.90
2023-04-08T00:06:11.343Z,1.25
2023-04-08T00:08:38.669Z,1.07
2023-04-08T00:11:06.471Z,1.27
2023-04-08T00:13:33.838Z,0.73
2023-04-08T00:16:01.302Z,0.98
2023-04-08T00:18:29.318Z,1.02
2023-04-08T00:20:57.368Z,0.85
2023-04-08T00:25:51.714Z,1.00
2023-04-08T00:28:18.945Z,1.13
2023-04-08T00:30:46.326Z,0.80
2023-04-08T00:33:13.702Z,1.25
2023-04-08T00:35:41.029Z,1.00
2023-04-08T00:38:08.596Z,1.13
2023-04-08T00:40:35.816Z,1.10
2023-04-08T00:43:03.057Z,0.90
2023-04-08T00:45:30.536Z,1.53
2023-04-08T00:47:57.806Z,1.73
2023-04-08T00:50:25.396Z,2.35
2023-04-08T00:52:52.640Z,1.52
2023-04-08T00:55:19.853Z,1.60
2023-04-08T00:57:47.350Z,1.60
2023-04-08T01:00:15.201Z,1.00
2023-04-08T01:03:01.424Z,1.08
2023-04-08T01:05:47.845Z,1.17
2023-04-08T01:08:16.251Z,1.20
2023-04-08T01:10:45.924Z,1.13
2023-04-08T01:13:14.629Z,1.08
2023-04-08T01:15:43.355Z,1.10
2023-04-08T01:18:12.602Z,1.65
2023-04-08T01:20:41.264Z,0.95
2023-04-08T01:23:21.439Z,0.90
2023-04-08T01:25:52.740Z,1.17
2023-04-08T01:28:21.436Z,1.40
2023-04-08T01:30:49.989Z,1.33
2023-04-08T01:33:19.133Z,1.30
2023-04-08T01:35:46.715Z,0.98
2023-04-08T01:38:16.454Z,1.30
2023-04-08T01:40:43.925Z,1.02
2023-04-08T01:43:12.527Z,1.00
2023-04-08T01:45:39.882Z,1.10
2023-04-08T01:48:08.159Z,2.33
2023-04-08T01:50:35.657Z,1.63
2023-04-08T01:53:03.104Z,1.58
2023-04-08T01:55:30.552Z,0.80
2023-04-08T01:57:59.518Z,1.48
2023-04-08T02:00:28.641Z,1.70
2023-04-08T02:02:56.648Z,1.08
2023-04-08T02:07:53.430Z,1.40
2023-04-08T02:10:20.799Z,1.80
2023-04-08T02:12:48.309Z,0.90
2023-04-08T02:15:15.734Z,0.98
2023-04-08T02:17:47.478Z,1.33
2023-04-08T02:20:17.843Z,1.35
2023-04-08T02:22:49.704Z,0.80
2023-04-08T02:25:17.731Z,0.82
2023-04-08T02:27:48.740Z,1.00
2023-04-08T02:30:16.434Z,1.42
2023-04-08T02:32:44.632Z,1.30
2023-04-08T02:37:41.604Z,0.80
2023-04-08T02:40:25.845Z,1.50
2023-04-08T02:42:53.315Z,0.93
2023-04-08T02:45:20.835Z,1.95
2023-04-08T02:47:48.320Z,1.00
2023-04-08T02:50:15.606Z,1.20
2023-04-08T02:52:43.880Z,1.40
2023-04-08T02:55:11.212Z,1.15
2023-04-08T02:57:40.443Z,1.20
2023-04-08T03:00:08.456Z,1.00
2023-04-08T03:02:36.231Z,1.05
2023-04-08T03:05:05.484Z,1.08
2023-04-08T03:07:33.070Z,1.25
2023-04-08T03:10:00.363Z,1.00
2023-04-08T03:12:28.135Z,1.33
2023-04-08T03:14:55.430Z,2.08
2023-04-08T03:17:24.868Z,1.10
2023-04-08T03:19:52.124Z,1.13
2023-04-08T03:22:19.786Z,1.35
2023-04-08T03:24:47.016Z,1.25
2023-04-08T03:27:14.201Z,0.97
2023-04-08T03:29:41.557Z,1.42
2023-04-08T03:32:08.889Z,0.98
2023-04-08T03:34:36.139Z,1.33
2023-04-08T03:37:03.382Z,0.83
2023-04-08T03:39:31.308Z,1.47
2023-04-08T03:42:00.845Z,1.35
2023-04-08T03:44:28.236Z,1.33
2023-04-08T03:46:55.624Z,1.17
2023-04-08T03:49:22.934Z,0.95
2023-04-08T03:51:50.167Z,2.60
2023-04-08T03:54:17.409Z,1.23
2023-04-08T03:56:44.596Z,1.10
2023-04-08T03:59:11.830Z,1.83
2023-04-08T04:01:40.712Z,1.30
2023-04-08T04:04:09.375Z,1.13
2023-04-08T04:06:37.753Z,1.77
2023-04-08T04:09:05.039Z,1.00
2023-04-08T04:11:32.319Z,1.30
2023-04-08T04:13:59.564Z,1.53
2023-04-08T04:16:26.760Z,0.90
2023-04-08T04:18:54.504Z,1.25
2023-04-08T04:21:21.989Z,0.90
2023-04-08T04:23:49.227Z,1.70
2023-04-08T04:26:18.903Z,2.10
2023-04-08T04:28:46.124Z,1.17
2023-04-08T04:31:29.594Z,1.15
2023-04-08T04:33:56.868Z,1.08
2023-04-08T04:36:24.088Z,2.22
2023-04-08T04:38:52.195Z,1.40
2023-04-08T04:41:19.712Z,1.58
2023-04-08T04:43:46.940Z,1.53
2023-04-08T04:46:14.261Z,1.38
2023-04-08T04:48:41.637Z,1.20
2023-04-08T04:51:08.863Z,1.50
2023-04-08T04:53:38.574Z,1.23
2023-04-08T04:56:05.910Z,1.10
2023-04-08T04:58:33.114Z,1.57
2023-04-08T05:01:00.516Z,1.60
2023-04-08T05:03:27.735Z,1.92
2023-04-08T05:05:55.431Z,2.05
2023-04-08T05:08:22.791Z,1.23
2023-04-08T05:10:50.942Z,1.25
2023-04-08T05:13:18.992Z,1.55
2023-04-08T05:15:46.444Z,1.67
2023-04-08T05:18:13.915Z,1.25
2023-04-08T05:20:41.156Z,1.17
2023-04-08T05:23:08.820Z,3.17
2023-04-08T05:25:36.425Z,1.17
2023-04-08T05:28:03.727Z,1.90
2023-04-08T05:30:31.480Z,3.37
2023-04-08T05:33:00.335Z,2.58
2023-04-08T05:35:28.337Z,2.25
2023-04-08T05:37:55.718Z,2.33
2023-04-08T05:40:22.974Z,1.33
2023-04-08T05:42:50.411Z,1.27
2023-04-08T05:45:17.673Z,1.70
2023-04-08T05:47:44.997Z,2.17
2023-04-08T05:50:12.370Z,1.10
2023-04-08T05:52:43.802Z,1.10
2023-04-08T05:55:11.716Z,1.50
2023-04-08T05:57:41.662Z,1.15
2023-04-08T06:00:09.917Z,1.50
2023-04-08T06:05:04.931Z,1.67
2023-04-08T06:07:33.137Z,1.85
2023-04-08T06:12:27.712Z,1.40
2023-04-08T06:14:56.233Z,1.00
2023-04-08T06:17:23.977Z,1.77
2023-04-08T06:19:51.234Z,1.58
2023-04-08T06:22:18.487Z,1.47
2023-04-08T06:24:47.742Z,2.42
2023-04-08T06:27:15.274Z,2.38
2023-04-08T06:29:43.041Z,1.40
2023-04-08T06:32:10.868Z,1.83
2023-04-08T06:34:38.371Z,1.77
2023-04-08T06:37:06.405Z,2.25
2023-04-08T06:42:00.909Z,1.17
2023-04-08T06:44:28.275Z,2.40
2023-04-08T06:46:56.081Z,1.30
2023-04-08T06:49:23.334Z,1.60
2023-04-08T06:51:50.989Z,1.60
2023-04-08T06:54:18.248Z,2.50
2023-04-08T06:56:45.478Z,2.50
2023-04-08T06:59:12.727Z,1.57
2023-04-08T07:01:40.099Z,1.77
2023-04-08T07:04:07.474Z,1.67
2023-04-08T07:06:34.772Z,2.10
2023-04-08T07:09:02.023Z,1.40
2023-04-08T07:11:31.793Z,2.00
2023-04-08T07:13:59.017Z,1.23
2023-04-08T07:16:26.309Z,2.45
2023-04-08T07:18:53.682Z,2.00
2023-04-08T07:21:20.915Z,1.27
2023-04-08T07:23:48.140Z,1.45
2023-04-08T07:26:15.323Z,1.37
2023-04-08T07:28:42.784Z,2.15
2023-04-08T07:31:14.331Z,1.88
2023-04-08T07:33:41.622Z,1.33
2023-04-08T07:36:10.554Z,1.33
2023-04-08T07:38:37.952Z,2.03
2023-04-08T07:41:05.826Z,1.10
2023-04-08T07:43:34.634Z,1.83
2023-04-08T07:46:05.794Z,1.50
2023-04-08T07:48:33.421Z,1.52
2023-04-08T07:51:08.694Z,2.15
2023-04-08T07:53:36.895Z,1.83
2023-04-08T07:56:04.277Z,2.53
2023-04-08T07:58:32.274Z,2.53
2023-04-08T08:03:27.438Z,3.15
2023-04-08T08:05:54.766Z,3.42
2023-04-08T08:08:21.989Z,1.53
2023-04-08T08:10:49.225Z,1.33
2023-04-08T08:13:18.370Z,1.80
2023-04-08T08:15:45.818Z,2.15
2023-04-08T08:18:13.051Z,1.88
2023-04-08T08:20:42.551Z,2.00
2023-04-08T08:23:09.778Z,2.28
2023-04-08T08:25:37.002Z,2.35
2023-04-08T08:28:04.215Z,1.27
2023-04-08T08:30:34.268Z,1.42
2023-04-08T08:33:01.633Z,1.13
2023-04-08T08:35:28.888Z,1.17
2023-04-08T08:37:56.235Z,1.25
2023-04-08T08:40:23.474Z,2.27
2023-04-08T08:42:52.343Z,1.57
2023-04-08T08:45:22.810Z,1.40
2023-04-08T08:47:51.434Z,1.25
2023-04-08T08:50:19.417Z,2.80
2023-04-08T08:52:53.107Z,1.48
2023-04-08T08:55:41.270Z,1.10
2023-04-08T08:58:08.016Z,1.35
2023-04-08T09:00:36.468Z,2.07
2023-04-08T09:03:20.149Z,1.45
2023-04-08T09:05:53.993Z,1.35
2023-04-08T09:08:25.422Z,1.67
2023-04-08T09:10:53.119Z,1.00
2023-04-08T09:13:20.360Z,1.90
2023-04-08T09:16:09.226Z,1.73
2023-04-08T09:18:39.817Z,1.55
2023-04-08T09:21:07.738Z,2.15
2023-04-08T09:23:51.542Z,1.25
2023-04-08T09:26:20.166Z,1.38
2023-04-08T09:29:18.173Z,1.50
2023-04-08T09:31:59.352Z,1.10
2023-04-08T09:34:27.416Z,1.40
2023-04-08T09:36:55.869Z,1.17
2023-04-08T09:39:23.413Z,1.10
2023-04-08T09:41:51.642Z,1.63
2023-04-08T09:44:21.039Z,1.20
2023-04-08T09:46:48.536Z,1.10
2023-04-08T09:49:34.562Z,1.98
2023-04-08T09:52:08.965Z,1.15
2023-04-08T09:54:44.191Z,1.20
2023-04-08T09:57:14.351Z,1.15
2023-04-08T09:59:45.851Z,1.00
2023-04-08T10:02:17.778Z,1.08
2023-04-08T10:04:46.644Z,1.40
2023-04-08T10:07:14.983Z,0.90
2023-04-08T10:09:43.276Z,1.10
2023-04-08T10:14:37.932Z,1.15
2023-04-08T10:17:24.043Z,1.00
2023-04-08T10:19:53.611Z,1.15
2023-04-08T10:22:48.222Z,1.13
2023-04-08T10:25:41.923Z,1.00
2023-04-08T10:28:12.327Z,1.00
2023-04-08T10:30:40.584Z,1.00
2023-04-08T10:35:42.039Z,0.90
2023-04-08T10:38:09.530Z,1.10
2023-04-08T10:40:41.349Z,1.60
2023-04-08T10:43:08.972Z,1.38
2023-04-08T10:45:36.328Z,1.20
2023-04-08T10:48:24.497Z,1.03
2023-04-08T10:50:57.044Z,1.20
2023-04-08T10:53:28.083Z,1.48
2023-04-08T10:55:55.876Z,1.15
2023-04-08T10:58:23.121Z,0.95
2023-04-08T11:00:50.373Z,1.90
2023-04-08T11:03:17.759Z,1.20
2023-04-08T11:05:47.814Z,1.13
2023-04-08T11:08:15.029Z,1.20
2023-04-08T11:10:44.966Z,1.25
2023-04-08T11:13:12.873Z,1.33
2023-04-08T11:15:40.162Z,1.25
2023-04-08T11:18:08.346Z,1.47
2023-04-08T11:23:04.288Z,1.20
2023-04-08T11:25:31.943Z,1.73
2023-04-08T11:28:00.440Z,1.27
2023-04-08T11:30:28.165Z,1.00
2023-04-08T11:32:57.003Z,1.08
2023-04-08T11:35:24.318Z,1.40
2023-04-08T11:37:53.970Z,1.00
2023-04-08T11:40:22.256Z,1.55
2023-04-08T11:45:21.303Z,1.20
2023-04-08T11:47:49.097Z,1.23
2023-04-08T11:50:34.493Z,1.38
2023-04-08T11:53:01.801Z,1.40
2023-04-08T11:55:30.194Z,1.23
2023-04-08T11:57:58.280Z,1.35
2023-04-08T12:00:27.967Z,1.25
2023-04-08T12:02:55.353Z,1.17
2023-04-08T12:05:22.647Z,2.45
2023-04-08T12:07:52.474Z,1.38
2023-04-08T12:10:19.728Z,1.58
2023-04-08T12:12:47.016Z,0.98
2023-04-08T12:15:14.201Z,0.97
2023-04-08T12:17:41.466Z,1.17
2023-04-08T12:20:08.946Z,1.33
2023-04-08T12:22:36.306Z,1.20
2023-04-08T12:25:04.252Z,1.47
2023-04-08T12:27:33.542Z,1.88
2023-04-08T12:30:01.123Z,1.27
2023-04-08T12:32:30.924Z,1.17
2023-04-08T12:34:58.182Z,1.40
2023-04-08T12:37:25.406Z,1.27
2023-04-08T12:39:52.692Z,1.48
2023-04-08T12:42:20.004Z,1.43
2023-04-08T12:44:47.234Z,1.13
2023-04-08T12:47:14.641Z,1.20
2023-04-08T12:49:49.255Z,1.27
2023-04-08T12:52:17.602Z,1.23
2023-04-08T12:54:45.098Z,1.33
2023-04-08T12:57:12.612Z,1.10
2023-04-08T12:59:40.191Z,1.25
2023-04-08T13:02:08.244Z,1.48
2023-04-08T13:04:35.724Z,1.45
2023-04-08T13:07:04.389Z,1.30
2023-04-08T13:09:31.657Z,1.20
2023-04-08T13:11:59.616Z,1.52
2023-04-08T13:14:27.497Z,1.27
2023-04-08T13:16:54.796Z,1.35
2023-04-08T13:19:22.053Z,1.47
2023-04-08T13:21:51.559Z,1.33
2023-04-08T13:24:18.771Z,1.35
2023-04-08T13:26:46.214Z,1.55
2023-04-08T13:29:13.473Z,1.50
2023-04-08T13:31:40.921Z,1.37
2023-04-08T13:34:08.158Z,1.20
2023-04-08T13:36:35.439Z,1.40
2023-04-08T13:39:02.657Z,1.30
2023-04-08T13:41:30.063Z,1.50
2023-04-08T13:43:57.293Z,1.65
2023-04-08T13:46:24.669Z,1.33
2023-04-08T13:48:52.247Z,1.58
2023-04-08T13:51:19.670Z,1.38
2023-04-08T13:53:47.059Z,1.10
2023-04-08T13:56:14.274Z,1.65
2023-04-08T13:58:41.674Z,1.60
2023-04-08T14:01:08.918Z,1.30
2023-04-08T14:03:36.587Z,1.53
2023-04-08T14:06:03.826Z,1.40
2023-04-08T14:08:31.147Z,1.27
2023-04-08T14:10:59.307Z,1.67
2023-04-08T14:13:26.556Z,1.40
2023-04-08T14:15:55.064Z,1.53
2023-04-08T14:18:22.364Z,1.30
2023-04-08T14:20:49.570Z,1.40
2023-04-08T14:23:17.150Z,1.42
2023-04-08T14:25:44.411Z,1.60
2023-04-08T14:28:12.348Z,1.42
2023-04-08T14:30:39.614Z,1.65
2023-04-08T14:33:06.884Z,1.50
2023-04-08T14:35:34.353Z,1.42
2023-04-08T14:38:01.851Z,1.65
2023-04-08T14:40:29.071Z,1.45
2023-04-08T14:42:56.429Z,1.52
2023-04-08T14:45:23.778Z,2.03
2023-04-08T14:47:51.107Z,1.50
2023-04-08T14:50:18.931Z,1.53
2023-04-08T14:52:48.498Z,1.83
2023-04-08T14:55:15.923Z,1.60
2023-04-08T14:57:43.157Z,1.60
2023-04-08T15:00:10.648Z,1.60
2023-04-08T15:02:37.918Z,1.75
2023-04-08T15:05:05.412Z,1.60
2023-04-08T15:07:32.691Z,1.48
2023-04-08T15:09:59.933Z,1.63
2023-04-08T15:12:27.152Z,1.70
2023-04-08T15:14:54.372Z,1.67
2023-04-08T15:17:21.622Z,1.52
2023-04-08T15:19:49.192Z,1.60
2023-04-08T15:22:16.691Z,1.40
2023-04-08T15:24:44.099Z,1.50
2023-04-08T15:29:39.327Z,2.17
2023-04-08T15:32:06.544Z,1.50
2023-04-08T15:34:33.907Z,1.48
2023-04-08T15:37:02.214Z,1.70
2023-04-08T15:41:56.642Z,1.50
2023-04-08T15:44:24.229Z,1.63
2023-04-08T15:46:51.499Z,1.50
2023-04-08T15:49:18.741Z,2.50
2023-04-08T15:51:45.954Z,1.57
2023-04-08T15:54:13.129Z,1.48
2023-04-08T15:56:40.778Z,1.60
2023-04-08T15:59:08.071Z,1.75
2023-04-08T16:01:35.357Z,2.50
2023-04-08T16:04:02.737Z,2.63
2023-04-08T16:06:30.010Z,1.60
2023-04-08T16:08:59.747Z,1.50
2023-04-08T16:11:27.670Z,1.52
2023-04-08T16:13:54.920Z,1.50
2023-04-08T16:16:22.140Z,1.85
2023-04-08T16:18:49.509Z,1.65
2023-04-08T16:21:17.306Z,1.50
2023-04-08T16:23:44.562Z,1.50
2023-04-08T16:26:12.836Z,1.80
2023-04-08T16:31:07.700Z,1.58
2023-04-08T16:33:34.983Z,2.25
2023-04-08T16:36:04.462Z,1.58
2023-04-08T16:38:33.025Z,1.50
2023-04-08T16:41:00.630Z,1.90
2023-04-08T16:43:28.010Z,1.40
2023-04-08T16:45:55.386Z,1.60
2023-04-08T16:48:23.277Z,1.67
2023-04-08T16:50:50.467Z,1.55
2023-04-08T16:53:17.744Z,1.60
2023-04-08T16:55:44.946Z,1.77
2023-04-08T16:58:12.204Z,1.92
2023-04-08T17:00:39.720Z,1.63
2023-04-08T17:03:07.337Z,1.60
2023-04-08T17:05:34.639Z,1.90
2023-04-08T17:08:02.559Z,1.80
2023-04-08T17:10:29.762Z,1.70
2023-04-08T17:12:57.973Z,1.63
2023-04-08T17:17:52.387Z,1.50
2023-04-08T17:20:19.744Z,1.70
2023-04-08T17:22:47.380Z,1.47
2023-04-08T17:25:14.658Z,1.60
2023-04-08T17:27:41.855Z,1.63
2023-04-08T17:30:11.162Z,1.60
2023-04-08T17:32:38.792Z,1.60
2023-04-08T17:35:06.292Z,1.60
2023-04-08T17:37:33.503Z,1.60
2023-04-08T17:40:00.747Z,1.52
2023-04-08T17:42:27.945Z,1.60
2023-04-08T17:44:56.093Z,1.70
2023-04-08T17:49:50.751Z,2.10
2023-04-08T17:52:17.964Z,1.50
2023-04-08T17:54:45.305Z,1.60
2023-04-08T17:57:13.022Z,1.90
2023-04-08T17:59:40.375Z,1.67
2023-04-08T18:02:07.640Z,1.70
2023-04-08T18:04:34.970Z,1.57
2023-04-08T18:07:04.511Z,2.00
2023-04-08T18:09:32.084Z,1.73
2023-04-08T18:11:59.273Z,1.83
2023-04-08T18:14:26.486Z,1.77
2023-04-08T18:16:53.829Z,1.60
2023-04-08T18:19:21.103Z,1.53
2023-04-08T18:21:48.311Z,1.60
2023-04-08T18:24:15.650Z,1.83
2023-04-08T18:26:43.942Z,1.70
2023-04-08T18:29:12.521Z,1.70
2023-04-08T18:31:39.772Z,1.63
2023-04-08T18:34:06.987Z,1.90
2023-04-08T18:36:34.197Z,2.03
2023-04-08T18:39:02.186Z,1.85
2023-04-08T18:41:29.599Z,1.83
2023-04-08T18:43:58.090Z,1.95
2023-04-08T18:46:25.372Z,1.80
2023-04-08T18:48:52.566Z,1.92
2023-04-08T18:51:19.775Z,2.08
2023-04-08T18:53:49.870Z,1.73
2023-04-08T18:56:17.887Z,1.90
2023-04-08T18:58:46.279Z,2.70
2023-04-08T19:01:19.107Z,2.38
2023-04-08T19:03:46.526Z,3.50
2023-04-08T19:06:13.926Z,5.53
2023-04-08T19:08:41.504Z,4.80
2023-04-08T19:11:08.734Z,3.25
2023-04-08T19:13:36.011Z,5.57
2023-04-08T19:16:03.273Z,5.20
2023-04-08T19:18:30.543Z,5.13
2023-04-08T19:20:57.870Z,4.60
2023-04-08T19:23:25.161Z,6.03
2023-04-08T19:25:52.399Z,5.60
2023-04-08T19:28:20.614Z,10.02
2023-04-08T19:33:21.060Z,9.00
2023-04-08T19:35:49.512Z,8.30
2023-04-08T19:38:16.756Z,7.72
2023-04-08T19:40:44.011Z,9.32
2023-04-08T19:43:11.514Z,8.37
2023-04-08T19:45:38.821Z,5.05
2023-04-08T19:48:07.611Z,6.03
2023-04-08T19:50:38.231Z,7.53
2023-04-08T19:53:05.763Z,6.18
2023-04-08T19:55:33.976Z,5.93
2023-04-08T20:00:29.472Z,5.90
2023-04-08T20:02:56.831Z,9.48
2023-04-08T20:05:24.103Z,6.82
2023-04-08T20:07:51.370Z,6.40
2023-04-08T20:10:18.612Z,8.10
2023-04-08T20:12:45.841Z,5.00
2023-04-08T20:15:23.581Z,10.70
2023-04-08T20:17:52.613Z,6.53
2023-04-08T20:22:47.013Z,7.43
2023-04-08T20:27:41.670Z,7.10
2023-04-08T20:30:09.416Z,8.40
2023-04-08T20:32:36.737Z,10.45
2023-04-08T20:35:04.438Z,8.70
2023-04-08T20:37:33.240Z,7.15
2023-04-08T20:40:00.942Z,4.78
2023-04-08T20:42:28.699Z,5.85
2023-04-08T20:44:55.966Z,7.22
2023-04-08T20:47:23.199Z,5.32
2023-04-08T20:49:50.428Z,6.25
2023-04-08T20:52:17.675Z,4.57
2023-04-08T20:54:44.922Z,8.18
2023-04-08T20:57:12.100Z,7.57
2023-04-08T20:59:39.330Z,6.13
2023-04-08T21:02:07.649Z,5.60
2023-04-08T21:04:34.973Z,4.50
2023-04-08T21:07:02.358Z,4.72
2023-04-08T21:09:29.565Z,4.27
2023-04-08T21:11:56.800Z,8.35
2023-04-08T21:14:24.023Z,5.38
2023-04-08T21:16:51.335Z,5.28
2023-04-08T21:19:18.578Z,10.50
2023-04-08T21:21:46.733Z,5.97
2023-04-08T21:26:43.329Z,7.65
2023-04-08T21:29:11.549Z,3.85
2023-04-08T21:34:07.072Z,6.10
2023-04-08T21:36:34.467Z,5.38
2023-04-08T21:39:02.348Z,4.72
2023-04-08T21:41:30.587Z,6.43
2023-04-08T21:43:58.245Z,7.68
2023-04-08T21:46:25.743Z,4.90
2023-04-08T21:48:53.353Z,4.60
2023-04-08T21:51:20.826Z,4.88
2023-04-08T21:53:48.081Z,4.15
2023-04-08T21:56:15.435Z,4.90
2023-04-08T21:58:42.660Z,4.47
2023-04-08T22:01:09.853Z,4.00
2023-04-08T22:03:37.164Z,5.25
2023-04-08T22:06:04.520Z,5.73
2023-04-08T22:08:32.574Z,4.43
2023-04-08T22:10:59.794Z,3.65
2023-04-08T22:13:27.296Z,4.30
2023-04-08T22:15:54.524Z,4.60
2023-04-08T22:18:21.781Z,3.55
2023-04-08T22:20:48.996Z,3.83
2023-04-08T22:23:16.290Z,3.17
2023-04-08T22:25:43.471Z,4.45
2023-04-08T22:28:10.705Z,5.15
2023-04-08T22:30:37.954Z,4.70
2023-04-08T22:33:05.257Z,3.20
2023-04-08T22:35:32.463Z,5.10
2023-04-08T22:37:59.718Z,4.72
2023-04-08T22:40:26.964Z,3.75
2023-04-08T22:42:54.266Z,3.85
2023-04-08T22:45:21.629Z,3.00
2023-04-08T22:47:48.878Z,3.23
2023-04-08T22:50:16.094Z,3.65
2023-04-08T22:52:43.305Z,4.63
2023-04-08T22:55:10.642Z,3.38
2023-04-08T22:57:37.963Z,4.17
2023-04-08T23:00:05.759Z,3.67
2023-04-08T23:02:33.029Z,3.40
2023-04-08T23:05:00.340Z,4.07
2023-04-08T23:07:27.599Z,4.70
2023-04-08T23:09:54.814Z,2.92
2023-04-08T23:12:22.044Z,2.60
2023-04-08T23:14:49.734Z,4.53
2023-04-08T23:17:16.957Z,3.53
2023-04-08T23:19:46.359Z,3.25
2023-04-08T23:22:13.588Z,4.07
2023-04-08T23:24:40.831Z,3.13
2023-04-08T23:27:08.854Z,3.97
2023-04-08T23:29:36.285Z,5.93
2023-04-08T23:32:03.479Z,3.40
2023-04-08T23:34:30.751Z,3.92
2023-04-08T23:36:57.965Z,4.20
2023-04-08T23:39:25.253Z,2.97
2023-04-08T23:41:52.469Z,3.40
2023-04-08T23:44:19.703Z,3.38
2023-04-08T23:46:46.897Z,3.03
2023-04-08T23:49:14.201Z,2.97
2023-04-08T23:51:41.419Z,3.25
2023-04-08T23:54:08.621Z,2.83
2023-04-08T23:56:35.841Z,3.20
2023-04-08T23:59:05.695Z,3.78
